Time;durP1;ratioP1;P1;durP2;ratioP2;P2;SDS_P1;SDS_P2;PMS_P1;PMS_P2;Temp;Humidity;BMP_temperature;BMP_pressure;BME280_temperature;BME280_humidity;BME280_pressure;Samples;Min_cycle;Max_cycle;Signal;HPM_P1;HPM_P2
2023/11/22 00:00:15;;;;;;;8.95;7.85;;;;;;;;;;5072399;28;20430;-59
2023/11/22 00:02:42;;;;;;;10.30;8.50;;;;;;;;;;5072592;28;20060;-60
2023/11/22 00:05:10;;;;;;;9.63;8.00;;;;;;;;;;5072500;28;20477;-60
2023/11/22 00:07:37;;;;;;;11.17;9.13;;;;;;;;;;5072624;28;20052;-60
2023/11/22 00:10:05;;;;;;;11.38;8.70;;;;;;;;;;5072741;28;20048;-60
2023/11/22 00:12:36;;;;;;;10.68;8.13;;;;;;;;;;5072254;28;20067;-60
2023/11/22 00:15:03;;;;;;;12.35;7.78;;;;;;;;;;5072580;28;20048;-60
2023/11/22 00:17:32;;;;;;;8.95;8.02;;;;;;;;;;5071936;28;20055;-60
2023/11/22 00:20:00;;;;;;;9.82;7.53;;;;;;;;;;5072361;28;20484;-60
2023/11/22 00:22:27;;;;;;;8.57;7.72;;;;;;;;;;5072584;28;20496;-60
2023/11/22 00:24:54;;;;;;;11.38;8.30;;;;;;;;;;5072267;28;20056;-60
2023/11/22 00:27:21;;;;;;;9.35;7.68;;;;;;;;;;5072415;28;20049;-60
2023/11/22 00:29:48;;;;;;;8.50;7.60;;;;;;;;;;5072412;28;20060;-60
2023/11/22 00:32:15;;;;;;;9.35;8.25;;;;;;;;;;5072541;28;20063;-60
2023/11/22 00:34:43;;;;;;;9.93;8.38;;;;;;;;;;5071991;28;20060;-60
2023/11/22 00:37:10;;;;;;;13.00;9.30;;;;;;;;;;5072294;28;20059;-60
2023/11/22 00:39:38;;;;;;;8.32;7.45;;;;;;;;;;5072287;28;20480;-60
2023/11/22 00:42:04;;;;;;;12.05;8.80;;;;;;;;;;5071867;28;20064;-60
2023/11/22 00:44:32;;;;;;;8.77;7.88;;;;;;;;;;5072013;28;20049;-60
2023/11/22 00:46:58;;;;;;;10.38;7.78;;;;;;;;;;5072066;28;20056;-61
2023/11/22 00:49:25;;;;;;;9.43;8.27;;;;;;;;;;5072185;28;20512;-60
2023/11/22 00:51:53;;;;;;;8.93;7.80;;;;;;;;;;5072262;28;20345;-60
2023/11/22 00:54:20;;;;;;;9.57;7.88;;;;;;;;;;5071764;28;20058;-60
2023/11/22 00:56:47;;;;;;;9.68;7.72;;;;;;;;;;5072016;28;20057;-60
2023/11/22 00:59:14;;;;;;;9.10;8.13;;;;;;;;;;5071819;28;20056;-60
2023/11/22 01:01:42;;;;;;;9.98;8.60;;;;;;;;;;5072055;28;20056;-60
2023/11/22 01:04:08;;;;;;;10.73;8.20;;;;;;;;;;5071734;28;20048;-60
2023/11/22 01:06:36;;;;;;;11.75;9.30;;;;;;;;;;5071520;28;20048;-60
2023/11/22 01:09:05;;;;;;;8.68;7.78;;;;;;;;;;5071717;28;20063;-60
2023/11/22 01:11:32;;;;;;;10.93;8.70;;;;;;;;;;5071940;28;20056;-60
2023/11/22 01:13:58;;;;;;;9.13;8.23;;;;;;;;;;5071892;28;20052;-60
2023/11/22 01:16:25;;;;;;;9.65;8.30;;;;;;;;;;5071892;28;20048;-60
2023/11/22 01:18:52;;;;;;;11.32;9.05;;;;;;;;;;5071962;28;20048;-60
2023/11/22 01:21:19;;;;;;;9.27;8.00;;;;;;;;;;5072010;28;20404;-61
2023/11/22 01:23:46;;;;;;;10.70;8.93;;;;;;;;;;5071789;28;20056;-61
2023/11/22 01:26:16;;;;;;;10.95;9.60;;;;;;;;;;5071704;28;20076;-61
2023/11/22 01:28:44;;;;;;;9.63;8.68;;;;;;;;;;5071588;28;20048;-61
2023/11/22 01:31:12;;;;;;;10.27;9.05;;;;;;;;;;5071817;28;20064;-60
2023/11/22 01:33:38;;;;;;;11.15;10.05;;;;;;;;;;5071436;28;20074;-60
2023/11/22 01:36:06;;;;;;;11.35;9.85;;;;;;;;;;5071966;28;20059;-60
2023/11/22 01:38:33;;;;;;;11.82;9.93;;;;;;;;;;5071793;28;20059;-60
2023/11/22 01:41:00;;;;;;;10.25;8.93;;;;;;;;;;5071136;28;20056;-60
2023/11/22 01:43:29;;;;;;;11.05;9.18;;;;;;;;;;5071611;28;20060;-60
2023/11/22 01:45:56;;;;;;;11.00;9.00;;;;;;;;;;5071426;28;20049;-60
2023/11/22 01:48:23;;;;;;;11.20;10.00;;;;;;;;;;5072083;28;20052;-59
2023/11/22 01:50:50;;;;;;;11.98;9.45;;;;;;;;;;5075543;28;20160;-60
2023/11/22 01:53:17;;;;;;;10.45;9.13;;;;;;;;;;5075234;28;20048;-60
2023/11/22 01:55:44;;;;;;;12.02;9.98;;;;;;;;;;5075136;28;20048;-60
2023/11/22 01:58:11;;;;;;;9.88;8.88;;;;;;;;;;5075181;28;20059;-60
2023/11/22 02:00:43;;;;;;;11.00;9.05;;;;;;;;;;5075015;28;20056;-60
2023/11/22 02:03:10;;;;;;;11.00;8.85;;;;;;;;;;5075039;28;20061;-60
2023/11/22 02:05:41;;;;;;;11.38;8.98;;;;;;;;;;5074711;28;20056;-60
2023/11/22 02:08:09;;;;;;;10.15;9.07;;;;;;;;;;5074960;28;20053;-60
2023/11/22 02:10:36;;;;;;;9.80;8.68;;;;;;;;;;5074991;28;20052;-60
2023/11/22 02:13:04;;;;;;;9.45;8.40;;;;;;;;;;5074869;28;20178;-60
2023/11/22 02:15:31;;;;;;;9.63;8.30;;;;;;;;;;5074602;28;20058;-60
2023/11/22 02:17:59;;;;;;;10.77;8.35;;;;;;;;;;5074410;28;20055;-62
2023/11/22 02:20:26;;;;;;;8.93;7.85;;;;;;;;;;5074705;28;20063;-60
2023/11/22 02:22:53;;;;;;;9.30;7.68;;;;;;;;;;5074668;28;20390;-62
2023/11/22 02:25:21;;;;;;;12.15;8.15;;;;;;;;;;5091913;28;20055;-60
2023/11/22 02:27:48;;;;;;;8.43;7.22;;;;;;;;;;5094765;28;20499;-60
2023/11/22 02:30:16;;;;;;;6.97;6.28;;;;;;;;;;5094532;28;20051;-60
2023/11/22 02:32:43;;;;;;;6.75;5.88;;;;;;;;;;5094331;28;20050;-59
2023/11/22 02:35:10;;;;;;;7.80;6.60;;;;;;;;;;5094787;28;20056;-61
2023/11/22 02:37:37;;;;;;;7.32;5.82;;;;;;;;;;5094636;28;20075;-62
2023/11/22 02:40:07;;;;;;;7.10;5.50;;;;;;;;;;5094773;28;20056;-62
2023/11/22 02:42:36;;;;;;;7.90;5.63;;;;;;;;;;5092309;28;20052;-59
2023/11/22 02:45:05;;;;;;;7.55;6.43;;;;;;;;;;5084414;28;20147;-62
2023/11/22 02:47:32;;;;;;;7.22;6.05;;;;;;;;;;5074209;28;20405;-60
2023/11/22 02:49:59;;;;;;;9.40;6.20;;;;;;;;;;5074119;28;20060;-60
2023/11/22 02:52:26;;;;;;;6.43;5.60;;;;;;;;;;5074412;28;20063;-60
2023/11/22 02:54:53;;;;;;;8.27;6.20;;;;;;;;;;5074162;28;20059;-60
2023/11/22 02:57:20;;;;;;;8.55;6.65;;;;;;;;;;5074864;28;20048;-61
2023/11/22 02:59:48;;;;;;;7.72;6.28;;;;;;;;;;5074009;28;20056;-61
2023/11/22 03:02:16;;;;;;;6.00;5.40;;;;;;;;;;5074541;28;20495;-61
2023/11/22 03:04:43;;;;;;;7.68;5.90;;;;;;;;;;5073988;28;20055;-61
2023/11/22 03:07:10;;;;;;;7.72;6.13;;;;;;;;;;5074271;28;20377;-60
2023/11/22 03:09:37;;;;;;;7.90;6.18;;;;;;;;;;5074273;28;20049;-61
2023/11/22 03:12:04;;;;;;;8.98;6.32;;;;;;;;;;5074502;28;20178;-60
2023/11/22 03:14:31;;;;;;;6.90;5.95;;;;;;;;;;5073796;28;20048;-60
2023/11/22 03:16:59;;;;;;;7.20;5.65;;;;;;;;;;5074125;28;20377;-61
2023/11/22 03:19:26;;;;;;;6.65;5.47;;;;;;;;;;5073811;28;20061;-60
2023/11/22 03:21:53;;;;;;;6.40;5.40;;;;;;;;;;5074014;28;20052;-61
2023/11/22 03:24:19;;;;;;;7.93;5.70;;;;;;;;;;5073710;28;20059;-60
2023/11/22 03:26:46;;;;;;;7.97;5.90;;;;;;;;;;5073562;28;20087;-60
2023/11/22 03:29:16;;;;;;;7.18;5.45;;;;;;;;;;5073169;28;20053;-60
2023/11/22 03:31:43;;;;;;;7.20;5.80;;;;;;;;;;5073641;28;20056;-60
2023/11/22 03:34:10;;;;;;;9.68;6.25;;;;;;;;;;5072987;28;20055;-60
2023/11/22 03:36:37;;;;;;;7.18;5.45;;;;;;;;;;5073133;28;20059;-61
2023/11/22 03:39:04;;;;;;;6.47;5.60;;;;;;;;;;5073116;28;20045;-61
2023/11/22 03:41:30;;;;;;;8.02;5.65;;;;;;;;;;5072518;28;20420;-60
2023/11/22 03:43:57;;;;;;;9.90;6.28;;;;;;;;;;5072782;28;20048;-60
2023/11/22 03:46:24;;;;;;;7.57;5.75;;;;;;;;;;5072930;28;20052;-60
2023/11/22 03:48:51;;;;;;;7.90;5.90;;;;;;;;;;5072749;28;20052;-60
2023/11/22 03:51:19;;;;;;;8.00;6.38;;;;;;;;;;5072850;28;20056;-60
2023/11/22 03:53:46;;;;;;;8.85;6.13;;;;;;;;;;5072560;28;20493;-60
2023/11/22 03:56:13;;;;;;;9.50;6.32;;;;;;;;;;5072719;28;20052;-60
2023/11/22 03:58:40;;;;;;;8.52;6.10;;;;;;;;;;5072562;28;20056;-62
2023/11/22 04:01:07;;;;;;;7.15;5.40;;;;;;;;;;5072646;28;20052;-60
2023/11/22 04:03:34;;;;;;;7.07;5.68;;;;;;;;;;5072856;28;20048;-61
2023/11/22 04:06:01;;;;;;;7.30;6.00;;;;;;;;;;5072721;28;20508;-60
2023/11/22 04:08:29;;;;;;;7.45;5.90;;;;;;;;;;5072683;28;20048;-61
2023/11/22 04:10:56;;;;;;;9.00;6.88;;;;;;;;;;5072302;28;20056;-60
2023/11/22 04:13:24;;;;;;;9.93;6.38;;;;;;;;;;5072560;28;20048;-60
2023/11/22 04:15:51;;;;;;;7.68;5.97;;;;;;;;;;5072414;28;20059;-60
2023/11/22 04:18:18;;;;;;;9.68;6.38;;;;;;;;;;5072305;28;20055;-60
2023/11/22 04:20:45;;;;;;;10.35;6.82;;;;;;;;;;5072454;28;20060;-60
2023/11/22 04:23:13;;;;;;;8.80;6.32;;;;;;;;;;5072608;28;20048;-60
2023/11/22 04:25:42;;;;;;;8.25;5.80;;;;;;;;;;5072405;28;20485;-60
2023/11/22 04:28:09;;;;;;;8.40;6.00;;;;;;;;;;5072101;28;20052;-59
2023/11/22 04:30:37;;;;;;;7.68;5.72;;;;;;;;;;5072177;28;20048;-60
2023/11/22 04:33:03;;;;;;;8.27;5.88;;;;;;;;;;5072586;28;20481;-60
2023/11/22 04:35:34;;;;;;;8.52;6.80;;;;;;;;;;5072277;28;20056;-59
2023/11/22 04:38:00;;;;;;;6.88;5.28;;;;;;;;;;5072122;28;20045;-59
2023/11/22 04:40:27;;;;;;;7.40;5.63;;;;;;;;;;5071954;28;20393;-60
2023/11/22 04:42:55;;;;;;;8.70;5.97;;;;;;;;;;5072492;28;20436;-60
2023/11/22 04:45:22;;;;;;;9.00;5.88;;;;;;;;;;5072078;28;20408;-60
2023/11/22 04:47:49;;;;;;;8.48;6.00;;;;;;;;;;5071915;28;20057;-60
2023/11/22 04:50:17;;;;;;;7.45;5.80;;;;;;;;;;5072071;28;20064;-60
2023/11/22 04:52:44;;;;;;;8.45;5.70;;;;;;;;;;5071803;28;20052;-60
2023/11/22 04:55:11;;;;;;;7.50;5.93;;;;;;;;;;5071783;28;20420;-60
2023/11/22 04:57:38;;;;;;;8.57;6.15;;;;;;;;;;5072191;28;20075;-58
2023/11/22 05:00:07;;;;;;;9.05;6.10;;;;;;;;;;5071875;28;20053;-60
2023/11/22 05:02:34;;;;;;;10.57;6.72;;;;;;;;;;5071964;28;20413;-60
2023/11/22 05:05:01;;;;;;;8.25;6.13;;;;;;;;;;5071985;28;20075;-61
2023/11/22 05:07:27;;;;;;;8.10;6.45;;;;;;;;;;5071780;28;20500;-61
2023/11/22 05:09:55;;;;;;;8.93;6.15;;;;;;;;;;5072043;28;20481;-60
2023/11/22 05:12:22;;;;;;;9.73;6.07;;;;;;;;;;5071980;28;20404;-60
2023/11/22 05:14:48;;;;;;;8.88;6.90;;;;;;;;;;5071699;28;20052;-60
2023/11/22 05:17:16;;;;;;;9.10;6.47;;;;;;;;;;5072114;28;20052;-60
2023/11/22 05:19:43;;;;;;;13.52;7.30;;;;;;;;;;5071775;28;20056;-60
2023/11/22 05:22:10;;;;;;;8.18;6.63;;;;;;;;;;5071314;28;20508;-60
2023/11/22 05:24:40;;;;;;;9.05;6.13;;;;;;;;;;5074059;28;20501;-60
2023/11/22 05:27:07;;;;;;;8.95;6.68;;;;;;;;;;5075717;28;20052;-60
2023/11/22 05:29:34;;;;;;;8.70;6.53;;;;;;;;;;5075401;28;20052;-59
2023/11/22 05:32:02;;;;;;;9.88;6.68;;;;;;;;;;5075530;28;20163;-60
2023/11/22 05:34:30;;;;;;;10.45;6.80;;;;;;;;;;5075505;28;20048;-60
2023/11/22 05:36:57;;;;;;;8.27;6.22;;;;;;;;;;5075540;28;20055;-60
2023/11/22 05:39:24;;;;;;;13.80;7.13;;;;;;;;;;5075264;28;20053;-60
2023/11/22 05:41:51;;;;;;;10.90;6.60;;;;;;;;;;5074869;28;20390;-60
2023/11/22 05:44:18;;;;;;;10.45;6.22;;;;;;;;;;5075299;28;20054;-60
2023/11/22 05:46:44;;;;;;;7.57;6.15;;;;;;;;;;5075161;28;20056;-60
2023/11/22 05:49:11;;;;;;;12.40;7.28;;;;;;;;;;5074514;28;20059;-60
2023/11/22 05:51:40;;;;;;;8.90;6.60;;;;;;;;;;5074914;28;20053;-60
2023/11/22 05:54:07;;;;;;;9.07;6.60;;;;;;;;;;5075120;28;20059;-60
2023/11/22 05:56:34;;;;;;;9.65;6.65;;;;;;;;;;5074965;28;20338;-61
2023/11/22 05:59:01;;;;;;;8.85;6.63;;;;;;;;;;5074600;28;20051;-60
2023/11/22 06:01:27;;;;;;;8.70;6.57;;;;;;;;;;5074765;28;20057;-60
2023/11/22 06:03:54;;;;;;;8.70;6.53;;;;;;;;;;5074510;28;20049;-60
2023/11/22 06:06:22;;;;;;;11.85;7.18;;;;;;;;;;5074894;28;20052;-61
2023/11/22 06:08:50;;;;;;;8.80;6.80;;;;;;;;;;5074574;28;20044;-61
2023/11/22 06:11:16;;;;;;;11.25;6.97;;;;;;;;;;5074566;28;20052;-61
2023/11/22 06:13:43;;;;;;;9.23;6.65;;;;;;;;;;5074250;28;20052;-61
2023/11/22 06:16:10;;;;;;;10.18;6.90;;;;;;;;;;5074335;28;20067;-60
2023/11/22 06:18:40;;;;;;;12.63;7.35;;;;;;;;;;5074588;28;20059;-61
2023/11/22 06:21:06;;;;;;;12.98;7.20;;;;;;;;;;5074589;28;20489;-60
2023/11/22 06:23:33;;;;;;;8.25;6.25;;;;;;;;;;5074035;28;20071;-61
2023/11/22 06:26:02;;;;;;;10.57;6.45;;;;;;;;;;5074272;28;20496;-61
2023/11/22 06:28:29;;;;;;;10.80;6.68;;;;;;;;;;5073998;28;20048;-60
2023/11/22 06:30:56;;;;;;;9.00;6.43;;;;;;;;;;5074363;28;20056;-60
2023/11/22 06:33:22;;;;;;;11.48;7.40;;;;;;;;;;5074107;28;20052;-60
2023/11/22 06:35:49;;;;;;;9.75;6.70;;;;;;;;;;5073796;28;20166;-60
2023/11/22 06:38:16;;;;;;;9.23;7.20;;;;;;;;;;5074426;28;20048;-61
2023/11/22 06:40:43;;;;;;;13.13;7.40;;;;;;;;;;5073720;28;20053;-61
2023/11/22 06:43:12;;;;;;;12.38;8.00;;;;;;;;;;5074114;28;20437;-60
2023/11/22 06:45:39;;;;;;;10.73;7.32;;;;;;;;;;5073718;28;20089;-60
2023/11/22 06:48:06;;;;;;;10.90;7.60;;;;;;;;;;5074021;28;20056;-60
2023/11/22 06:50:33;;;;;;;11.30;7.28;;;;;;;;;;5074128;28;20045;-60
2023/11/22 06:53:00;;;;;;;9.65;6.63;;;;;;;;;;5073616;28;20394;-60
2023/11/22 06:55:27;;;;;;;10.82;7.93;;;;;;;;;;5073432;28;20067;-60
2023/11/22 06:57:54;;;;;;;12.55;7.85;;;;;;;;;;5073691;28;20048;-60
2023/11/22 07:00:22;;;;;;;8.70;6.38;;;;;;;;;;5073788;28;20062;-60
2023/11/22 07:02:49;;;;;;;10.75;7.53;;;;;;;;;;5073460;28;20057;-60
2023/11/22 07:05:16;;;;;;;12.95;8.50;;;;;;;;;;5073293;28;20140;-60
2023/11/22 07:07:42;;;;;;;11.20;8.43;;;;;;;;;;5073575;28;20057;-60
2023/11/22 07:10:11;;;;;;;13.77;8.55;;;;;;;;;;5073362;28;20123;-61
2023/11/22 07:12:39;;;;;;;12.00;7.75;;;;;;;;;;5073424;28;20063;-60
2023/11/22 07:15:07;;;;;;;10.23;7.38;;;;;;;;;;5073313;28;20056;-60
2023/11/22 07:17:36;;;;;;;10.40;7.72;;;;;;;;;;5073057;28;20053;-61
2023/11/22 07:20:08;;;;;;;12.45;7.50;;;;;;;;;;5073384;28;20052;-61
2023/11/22 07:22:34;;;;;;;11.52;7.90;;;;;;;;;;5073223;28;20162;-59
2023/11/22 07:25:02;;;;;;;12.20;8.18;;;;;;;;;;5072859;28;20064;-60
2023/11/22 07:27:29;;;;;;;14.85;8.13;;;;;;;;;;5073074;28;20060;-61
2023/11/22 07:29:56;;;;;;;11.00;7.85;;;;;;;;;;5073084;28;20055;-60
2023/11/22 07:32:22;;;;;;;12.38;8.18;;;;;;;;;;5073028;28;20052;-60
2023/11/22 07:34:55;;;;;;;12.18;8.25;;;;;;;;;;5073106;28;20052;-61
2023/11/22 07:37:23;;;;;;;11.30;7.45;;;;;;;;;;5072540;28;20116;-61
2023/11/22 07:39:51;;;;;;;11.07;7.18;;;;;;;;;;5072836;28;20411;-61
2023/11/22 07:42:18;;;;;;;10.27;6.88;;;;;;;;;;5072267;28;20056;-60
2023/11/22 07:44:44;;;;;;;11.13;7.55;;;;;;;;;;5072595;28;20049;-60
2023/11/22 07:47:11;;;;;;;10.70;7.38;;;;;;;;;;5072121;28;20070;-61
2023/11/22 07:49:39;;;;;;;10.40;7.03;;;;;;;;;;5072131;28;20052;-60
2023/11/22 07:52:07;;;;;;;8.93;6.28;;;;;;;;;;5072662;28;20059;-61
2023/11/22 07:54:35;;;;;;;9.73;7.38;;;;;;;;;;5072378;28;20063;-61
2023/11/22 07:57:02;;;;;;;9.52;7.47;;;;;;;;;;5072403;28;20064;-61
2023/11/22 07:59:28;;;;;;;9.45;6.68;;;;;;;;;;5072338;28;20053;-61
2023/11/22 08:01:57;;;;;;;8.02;6.30;;;;;;;;;;5072526;28;20474;-61
2023/11/22 08:04:24;;;;;;;8.23;6.55;;;;;;;;;;5072126;28;20048;-61
2023/11/22 08:06:52;;;;;;;7.45;5.88;;;;;;;;;;5072474;28;20452;-61
2023/11/22 08:09:20;;;;;;;6.78;5.72;;;;;;;;;;5072046;28;20055;-61
2023/11/22 08:11:47;;;;;;;6.55;5.20;;;;;;;;;;5072563;28;20060;-61
2023/11/22 08:14:14;;;;;;;7.82;5.93;;;;;;;;;;5072432;28;20378;-62
2023/11/22 08:16:42;;;;;;;6.43;5.32;;;;;;;;;;5072202;28;20052;-61
2023/11/22 08:19:09;;;;;;;7.03;5.53;;;;;;;;;;5072186;28;20481;-59
2023/11/22 08:21:36;;;;;;;7.32;6.00;;;;;;;;;;5072083;28;20057;-60
2023/11/22 08:24:03;;;;;;;6.18;5.57;;;;;;;;;;5071944;28;20052;-60
2023/11/22 08:26:32;;;;;;;9.73;6.50;;;;;;;;;;5072014;28;20068;-60
2023/11/22 08:28:58;;;;;;;7.93;5.00;;;;;;;;;;5071979;28;20405;-60
2023/11/22 08:31:26;;;;;;;5.68;5.00;;;;;;;;;;5072165;28;20429;-60
2023/11/22 08:33:52;;;;;;;5.60;5.10;;;;;;;;;;5072055;28;20056;-60
2023/11/22 08:36:19;;;;;;;5.45;4.88;;;;;;;;;;5071899;28;20056;-60
2023/11/22 08:38:46;;;;;;;6.75;4.72;;;;;;;;;;5071568;28;20052;-60
2023/11/22 08:41:13;;;;;;;7.10;4.93;;;;;;;;;;5071221;28;20056;-60
2023/11/22 08:43:41;;;;;;;6.50;4.90;;;;;;;;;;5071395;28;20067;-60
2023/11/22 08:46:08;;;;;;;38.60;34.95;;;;;;;;;;5071932;28;20059;-61
2023/11/22 08:48:35;;;;;;;21.98;19.73;;;;;;;;;;5071548;28;20171;-60
2023/11/22 08:51:04;;;;;;;12.10;10.90;;;;;;;;;;5071573;28;20057;-61
2023/11/22 08:53:30;;;;;;;8.35;7.55;;;;;;;;;;5071843;28;20508;-61
2023/11/22 08:55:57;;;;;;;6.22;5.63;;;;;;;;;;5071364;28;20056;-61
2023/11/22 08:58:24;;;;;;;11.38;10.27;;;;;;;;;;5073787;28;20489;-61
2023/11/22 09:00:53;;;;;;;6.75;6.05;;;;;;;;;;5075999;28;20056;-61
2023/11/22 09:03:20;;;;;;;;;;;;;;;;;;5076682;28;20052;-61
2023/11/22 09:05:47;;;;;;;6.40;5.80;;;;;;;;;;5075934;28;19920;-61
2023/11/22 09:08:15;;;;;;;6.78;5.78;;;;;;;;;;5076065;28;20059;-61
2023/11/22 09:10:42;;;;;;;8.02;7.10;;;;;;;;;;5075555;28;20040;-61
2023/11/22 09:13:09;;;;;;;8.20;7.05;;;;;;;;;;5075735;28;20507;-61
2023/11/22 09:15:36;;;;;;;7.00;6.30;;;;;;;;;;5075681;28;20463;-61
2023/11/22 09:18:04;;;;;;;6.90;6.30;;;;;;;;;;5075763;28;20484;-61
2023/11/22 09:20:31;;;;;;;8.35;7.15;;;;;;;;;;5075640;28;20063;-61
2023/11/22 09:22:58;;;;;;;5.63;4.85;;;;;;;;;;5075361;28;20071;-61
2023/11/22 09:25:25;;;;;;;7.88;6.50;;;;;;;;;;5075249;28;20466;-61
2023/11/22 09:27:55;;;;;;;6.88;6.15;;;;;;;;;;5075761;28;20472;-61
2023/11/22 09:30:34;;;;;;;7.85;6.65;;;;;;;;;;5075546;28;20413;-61
2023/11/22 09:33:01;;;;;;;6.80;6.03;;;;;;;;;;5075767;28;20048;-60
2023/11/22 09:35:31;;;;;;;7.30;5.88;;;;;;;;;;5075397;28;20049;-60
2023/11/22 09:37:57;;;;;;;;;;;;;;;;;;5075519;28;20501;-61
2023/11/22 09:40:24;;;;;;;7.22;5.40;;;;;;;;;;5075091;28;19920;-61
2023/11/22 09:42:52;;;;;;;7.10;5.57;;;;;;;;;;5075130;28;20056;-60
2023/11/22 09:45:20;;;;;;;6.03;5.40;;;;;;;;;;5075350;28;20079;-60
2023/11/22 09:47:47;;;;;;;8.52;5.95;;;;;;;;;;5075215;28;20063;-60
2023/11/22 09:50:19;;;;;;;5.43;4.90;;;;;;;;;;5075094;28;20393;-60
2023/11/22 09:52:50;;;;;;;5.78;4.82;;;;;;;;;;5074869;28;20048;-60
2023/11/22 09:55:17;;;;;;;7.82;5.18;;;;;;;;;;5074823;28;20350;-60
2023/11/22 09:57:44;;;;;;;7.18;4.75;;;;;;;;;;5074574;28;20052;-62
2023/11/22 10:00:13;;;;;;;5.40;4.50;;;;;;;;;;5074984;28;20048;-61
2023/11/22 10:02:40;;;;;;;6.25;4.68;;;;;;;;;;5074651;28;20044;-62
2023/11/22 10:05:08;;;;;;;7.13;4.43;;;;;;;;;;5074954;28;20056;-62
2023/11/22 10:07:35;;;;;;;5.50;4.22;;;;;;;;;;5074515;28;20048;-61
2023/11/22 10:10:05;;;;;;;5.38;4.40;;;;;;;;;;5073933;28;20052;-61
2023/11/22 10:12:34;;;;;;;6.20;4.57;;;;;;;;;;5074628;28;20053;-62
2023/11/22 10:15:11;;;;;;;5.30;4.00;;;;;;;;;;5074264;28;20071;-59
2023/11/22 10:17:38;;;;;;;6.35;4.32;;;;;;;;;;5074844;28;20052;-60
2023/11/22 10:20:10;;;;;;;7.05;4.35;;;;;;;;;;5074456;28;20493;-60
2023/11/22 10:22:44;;;;;;;5.97;4.30;;;;;;;;;;5074278;28;20056;-60
2023/11/22 10:25:13;;;;;;;6.20;4.18;;;;;;;;;;5073983;28;20056;-60
2023/11/22 10:27:40;;;;;;;6.25;3.83;;;;;;;;;;5074344;28;20493;-60
2023/11/22 10:30:09;;;;;;;4.95;4.00;;;;;;;;;;5074079;28;20417;-60
2023/11/22 10:32:37;;;;;;;5.72;3.63;;;;;;;;;;5074051;28;20059;-60
2023/11/22 10:35:05;;;;;;;5.97;3.80;;;;;;;;;;5074024;28;20461;-60
2023/11/22 10:37:31;;;;;;;4.75;4.13;;;;;;;;;;5073887;28;20052;-61
2023/11/22 10:39:58;;;;;;;7.57;3.90;;;;;;;;;;5074066;28;20056;-60
2023/11/22 10:42:27;;;;;;;6.15;4.32;;;;;;;;;;5073447;28;20056;-60
2023/11/22 10:44:56;;;;;;;6.05;5.25;;;;;;;;;;5073794;28;20056;-61
2023/11/22 10:47:24;;;;;;;6.20;4.78;;;;;;;;;;5074013;28;20060;-60
2023/11/22 10:49:52;;;;;;;5.80;4.93;;;;;;;;;;5074036;28;20056;-60
2023/11/22 10:52:19;;;;;;;7.53;6.72;;;;;;;;;;5073748;28;20048;-60
2023/11/22 10:54:51;;;;;;;5.88;4.80;;;;;;;;;;5073501;28;20389;-60
2023/11/22 10:57:20;;;;;;;4.65;3.90;;;;;;;;;;5074012;28;20048;-60
2023/11/22 10:59:49;;;;;;;6.88;4.32;;;;;;;;;;5073719;28;20063;-60
2023/11/22 11:02:17;;;;;;;4.68;3.70;;;;;;;;;;5073821;28;20045;-60
2023/11/22 11:04:45;;;;;;;11.02;8.02;;;;;;;;;;5073701;28;20052;-60
2023/11/22 11:07:14;;;;;;;5.47;4.10;;;;;;;;;;5073935;28;20052;-60
2023/11/22 11:09:41;;;;;;;4.60;3.80;;;;;;;;;;5073961;28;20804;-60
2023/11/22 11:12:09;;;;;;;5.00;3.80;;;;;;;;;;5073704;28;20048;-61
2023/11/22 11:14:36;;;;;;;5.90;4.45;;;;;;;;;;5073712;28;20473;-61
2023/11/22 11:17:05;;;;;;;4.53;4.05;;;;;;;;;;5073734;28;20148;-60
2023/11/22 11:19:32;;;;;;;4.93;3.67;;;;;;;;;;5073625;28;20052;-60
2023/11/22 11:22:00;;;;;;;4.38;3.10;;;;;;;;;;5072634;28;20509;-61
2023/11/22 11:24:27;;;;;;;4.30;3.35;;;;;;;;;;5072991;28;20056;-61
2023/11/22 11:26:54;;;;;;;6.25;3.50;;;;;;;;;;5073123;28;20052;-61
2023/11/22 11:29:42;;;;;;;3.53;3.03;;;;;;;;;;5073003;28;20049;-61
2023/11/22 11:32:13;;;;;;;4.30;3.05;;;;;;;;;;5073225;28;20048;-61
2023/11/22 11:34:48;;;;;;;4.55;3.22;;;;;;;;;;5073044;28;20060;-61
2023/11/22 11:37:15;;;;;;;4.20;3.50;;;;;;;;;;5073267;28;20064;-61
2023/11/22 11:39:42;;;;;;;4.55;3.22;;;;;;;;;;5073191;28;20056;-61
2023/11/22 11:42:09;;;;;;;4.18;3.30;;;;;;;;;;5072560;28;20044;-61
2023/11/22 11:44:36;;;;;;;4.10;3.47;;;;;;;;;;5072841;28;20060;-61
2023/11/22 11:47:09;;;;;;;4.65;3.38;;;;;;;;;;5073089;28;20063;-61
2023/11/22 11:49:39;;;;;;;3.92;3.30;;;;;;;;;;5073073;28;20079;-61
2023/11/22 11:52:07;;;;;;;3.90;3.35;;;;;;;;;;5072930;28;20051;-61
2023/11/22 11:54:34;;;;;;;4.35;3.67;;;;;;;;;;5072695;28;20071;-61
2023/11/22 11:57:01;;;;;;;5.97;3.65;;;;;;;;;;5072674;28;20473;-61
2023/11/22 11:59:29;;;;;;;4.18;3.60;;;;;;;;;;5072708;28;20056;-62
2023/11/22 12:01:57;;;;;;;3.95;3.25;;;;;;;;;;5072690;28;20052;-61
2023/11/22 12:04:24;;;;;;;4.05;3.28;;;;;;;;;;5072533;28;20063;-61
2023/11/22 12:06:52;;;;;;;4.30;3.90;;;;;;;;;;5072740;28;20083;-61
2023/11/22 12:09:24;;;;;;;4.00;3.30;;;;;;;;;;5072543;28;20065;-61
2023/11/22 12:11:51;;;;;;;4.85;3.60;;;;;;;;;;5072587;28;20407;-61
2023/11/22 12:14:18;;;;;;;3.63;3.15;;;;;;;;;;5072432;28;20057;-61
2023/11/22 12:16:47;;;;;;;4.65;3.45;;;;;;;;;;5072591;28;20500;-61
2023/11/22 12:19:21;;;;;;;4.45;3.35;;;;;;;;;;5072345;28;20052;-61
2023/11/22 12:21:49;;;;;;;5.55;3.20;;;;;;;;;;5072523;28;20048;-61
2023/11/22 12:24:17;;;;;;;3.85;3.10;;;;;;;;;;5072226;28;20496;-61
2023/11/22 12:26:45;;;;;;;3.80;3.20;;;;;;;;;;5072566;28;20056;-62
2023/11/22 12:29:13;;;;;;;3.95;3.33;;;;;;;;;;5072332;28;20477;-61
2023/11/22 12:31:46;;;;;;;4.63;3.58;;;;;;;;;;5072238;28;20045;-61
2023/11/22 12:34:13;;;;;;;4.90;3.67;;;;;;;;;;5072087;28;20060;-61
2023/11/22 12:36:41;;;;;;;3.92;3.45;;;;;;;;;;5072399;28;20048;-61
2023/11/22 12:39:12;;;;;;;4.43;3.60;;;;;;;;;;5072406;28;20404;-61
2023/11/22 12:41:45;;;;;;;4.43;4.03;;;;;;;;;;5071808;28;20389;-61
2023/11/22 12:44:13;;;;;;;4.53;3.25;;;;;;;;;;5072187;28;20052;-62
2023/11/22 12:46:46;;;;;;;4.15;3.75;;;;;;;;;;5072211;28;20404;-61
2023/11/22 12:49:13;;;;;;;5.22;3.63;;;;;;;;;;5072084;28;20503;-61
2023/11/22 12:51:40;;;;;;;3.85;3.03;;;;;;;;;;5071924;28;20500;-60
2023/11/22 12:54:07;;;;;;;4.57;3.42;;;;;;;;;;5072049;28;20063;-60
2023/11/22 12:56:34;;;;;;;4.45;3.30;;;;;;;;;;5072137;28;20056;-62
2023/11/22 12:59:03;;;;;;;6.15;3.80;;;;;;;;;;5071897;28;20063;-61
2023/11/22 13:01:30;;;;;;;4.68;3.40;;;;;;;;;;5072183;28;20052;-61
2023/11/22 13:03:57;;;;;;;3.85;3.50;;;;;;;;;;5072005;28;20059;-61
2023/11/22 13:06:26;;;;;;;4.70;3.50;;;;;;;;;;5072021;28;20052;-61
2023/11/22 13:08:53;;;;;;;3.85;3.42;;;;;;;;;;5071978;28;20064;-61
2023/11/22 13:11:20;;;;;;;4.53;3.60;;;;;;;;;;5071900;28;20050;-62
2023/11/22 13:13:47;;;;;;;3.80;3.45;;;;;;;;;;5071756;28;20056;-61
2023/11/22 13:16:16;;;;;;;4.30;3.70;;;;;;;;;;5071958;28;20056;-61
2023/11/22 13:18:43;;;;;;;5.40;3.83;;;;;;;;;;5071739;28;20056;-62
2023/11/22 13:21:09;;;;;;;5.00;4.10;;;;;;;;;;5071556;28;20075;-61
2023/11/22 13:23:36;;;;;;;5.82;3.78;;;;;;;;;;5071651;28;20409;-61
2023/11/22 13:26:05;;;;;;;4.32;3.20;;;;;;;;;;5071651;28;20052;-61
2023/11/22 13:28:32;;;;;;;4.05;3.13;;;;;;;;;;5071442;28;20059;-61
2023/11/22 13:30:59;;;;;;;4.20;3.17;;;;;;;;;;5071703;28;20503;-60
2023/11/22 13:33:28;;;;;;;5.22;3.17;;;;;;;;;;5071271;28;20053;-61
2023/11/22 13:35:54;;;;;;;4.50;3.13;;;;;;;;;;5071698;28;20067;-61
2023/11/22 13:38:21;;;;;;;4.35;3.00;;;;;;;;;;5071589;28;20052;-61
2023/11/22 13:40:48;;;;;;;4.07;3.25;;;;;;;;;;5071112;28;20059;-61
2023/11/22 13:43:16;;;;;;;4.22;2.70;;;;;;;;;;5071493;28;20052;-61
2023/11/22 13:45:45;;;;;;;9.55;8.57;;;;;;;;;;5073907;28;20064;-61
2023/11/22 13:48:12;;;;;;;7.10;5.97;;;;;;;;;;5075195;28;20056;-61
2023/11/22 13:50:40;;;;;;;7.38;3.33;;;;;;;;;;5074848;28;20473;-61
2023/11/22 13:53:09;;;;;;;3.92;2.70;;;;;;;;;;5074925;28;20477;-61
2023/11/22 13:55:37;;;;;;;5.07;2.72;;;;;;;;;;5075122;28;20056;-61
2023/11/22 13:58:05;;;;;;;4.60;2.90;;;;;;;;;;5074928;28;20147;-61
2023/11/22 14:00:34;;;;;;;4.88;2.80;;;;;;;;;;5074626;28;20158;-61
2023/11/22 14:03:05;;;;;;;4.28;2.85;;;;;;;;;;5074960;28;20052;-61
2023/11/22 14:05:32;;;;;;;5.22;3.70;;;;;;;;;;5074964;28;20067;-61
2023/11/22 14:08:01;;;;;;;8.70;3.83;;;;;;;;;;5074572;28;20048;-61
2023/11/22 14:10:28;;;;;;;4.32;2.90;;;;;;;;;;5074426;28;20523;-61
2023/11/22 14:12:59;;;;;;;3.85;2.97;;;;;;;;;;5074643;28;20052;-61
2023/11/22 14:15:27;;;;;;;4.43;3.10;;;;;;;;;;5074207;28;20079;-60
2023/11/22 14:17:55;;;;;;;3.35;2.80;;;;;;;;;;5074359;28;20412;-60
2023/11/22 14:20:22;;;;;;;5.95;3.88;;;;;;;;;;5074258;28;20131;-60
2023/11/22 14:22:48;;;;;;;4.43;3.75;;;;;;;;;;5074683;28;20492;-60
2023/11/22 14:25:17;;;;;;;3.70;3.08;;;;;;;;;;5074047;28;20061;-60
2023/11/22 14:27:44;;;;;;;6.13;3.05;;;;;;;;;;5074583;28;20071;-61
2023/11/22 14:30:14;;;;;;;4.20;3.40;;;;;;;;;;5074457;28;20060;-60
2023/11/22 14:32:42;;;;;;;5.85;3.80;;;;;;;;;;5073968;28;20045;-59
2023/11/22 14:35:09;;;;;;;6.30;3.67;;;;;;;;;;5074242;28;20139;-60
2023/11/22 14:37:37;;;;;;;6.95;3.72;;;;;;;;;;5073939;28;20052;-60
2023/11/22 14:40:04;;;;;;;4.55;3.10;;;;;;;;;;5074345;28;20055;-62
2023/11/22 14:42:33;;;;;;;4.80;3.67;;;;;;;;;;5073648;28;20056;-60